sensor_id;sensor_type;location;lat;lon;timestamp;temperature;humidity
38380;DHT22;38377;47.418;18.882;2023-10-13T00:01:54;14.70;99.90
38380;DHT22;38377;47.418;18.882;2023-10-13T00:04:23;14.70;99.90
38380;DHT22;38377;47.418;18.882;2023-10-13T00:06:57;14.70;99.90
38380;DHT22;38377;47.418;18.882;2023-10-13T00:09:26;14.70;99.90
38380;DHT22;38377;47.418;18.882;2023-10-13T00:11:58;14.60;99.90
38380;DHT22;38377;47.418;18.882;2023-10-13T00:14:24;14.60;99.90
38380;DHT22;38377;47.418;18.882;2023-10-13T00:17:04;14.60;99.90
38380;DHT22;38377;47.418;18.882;2023-10-13T00:19:34;14.50;99.90
38380;DHT22;38377;47.418;18.882;2023-10-13T00:22:19;14.50;99.90
38380;DHT22;38377;47.418;18.882;2023-10-13T00:24:45;14.50;99.90
38380;DHT22;38377;47.418;18.882;2023-10-13T00:27:21;14.40;99.90
38380;DHT22;38377;47.418;18.882;2023-10-13T00:30:12;14.40;99.90
38380;DHT22;38377;47.418;18.882;2023-10-13T00:32:52;14.40;99.90
38380;DHT22;38377;47.418;18.882;2023-10-13T00:35:21;14.40;99.90
38380;DHT22;38377;47.418;18.882;2023-10-13T00:38:07;14.30;99.90
38380;DHT22;38377;47.418;18.882;2023-10-13T00:40:45;14.30;99.90
38380;DHT22;38377;47.418;18.882;2023-10-13T00:43:18;14.30;99.90
38380;DHT22;38377;47.418;18.882;2023-10-13T00:45:56;14.30;99.90
38380;DHT22;38377;47.418;18.882;2023-10-13T00:48:28;14.30;99.90
38380;DHT22;38377;47.418;18.882;2023-10-13T00:50:59;14.30;99.90
38380;DHT22;38377;47.418;18.882;2023-10-13T00:53:29;14.30;99.90
38380;DHT22;38377;47.418;18.882;2023-10-13T00:55:55;14.30;99.90
38380;DHT22;38377;47.418;18.882;2023-10-13T00:58:22;14.30;99.90
38380;DHT22;38377;47.418;18.882;2023-10-13T01:00:51;14.30;99.90
38380;DHT22;38377;47.418;18.882;2023-10-13T01:03:49;14.30;99.90
38380;DHT22;38377;47.418;18.882;2023-10-13T01:06:18;14.40;99.90
38380;DHT22;38377;47.418;18.882;2023-10-13T01:08:48;14.30;99.90
38380;DHT22;38377;47.418;18.882;2023-10-13T01:11:18;14.30;99.90
38380;DHT22;38377;47.418;18.882;2023-10-13T01:13:44;14.40;99.90
38380;DHT22;38377;47.418;18.882;2023-10-13T01:16:12;14.40;99.90
38380;DHT22;38377;47.418;18.882;2023-10-13T01:18:38;14.40;99.90
38380;DHT22;38377;47.418;18.882;2023-10-13T01:21:16;14.50;99.90
38380;DHT22;38377;47.418;18.882;2023-10-13T01:23:46;14.40;99.90
38380;DHT22;38377;47.418;18.882;2023-10-13T01:26:13;14.40;99.90
38380;DHT22;38377;47.418;18.882;2023-10-13T01:28:46;14.40;99.90
38380;DHT22;38377;47.418;18.882;2023-10-13T01:31:13;14.50;99.90
38380;DHT22;38377;47.418;18.882;2023-10-13T01:33:50;14.50;99.90
38380;DHT22;38377;47.418;18.882;2023-10-13T01:36:22;14.50;99.90
38380;DHT22;38377;47.418;18.882;2023-10-13T01:38:48;14.50;99.90
38380;DHT22;38377;47.418;18.882;2023-10-13T01:41:15;14.50;99.90
38380;DHT22;38377;47.418;18.882;2023-10-13T01:43:41;14.60;99.90
38380;DHT22;38377;47.418;18.882;2023-10-13T01:46:09;14.60;99.90
38380;DHT22;38377;47.418;18.882;2023-10-13T01:48:35;14.60;99.90
38380;DHT22;38377;47.418;18.882;2023-10-13T01:51:04;14.60;99.90
38380;DHT22;38377;47.418;18.882;2023-10-13T01:53:31;14.60;99.90
38380;DHT22;38377;47.418;18.882;2023-10-13T01:55:57;14.60;99.90
38380;DHT22;38377;47.418;18.882;2023-10-13T01:58:24;14.60;99.90
38380;DHT22;38377;47.418;18.882;2023-10-13T02:00:51;14.60;99.90
38380;DHT22;38377;47.418;18.882;2023-10-13T02:03:17;14.60;99.90
38380;DHT22;38377;47.418;18.882;2023-10-13T02:05:45;14.50;99.90
38380;DHT22;38377;47.418;18.882;2023-10-13T02:08:21;14.50;99.90
38380;DHT22;38377;47.418;18.882;2023-10-13T02:10:51;14.50;99.90
38380;DHT22;38377;47.418;18.882;2023-10-13T02:13:19;14.50;99.90
38380;DHT22;38377;47.418;18.882;2023-10-13T02:15:46;14.60;99.90
38380;DHT22;38377;47.418;18.882;2023-10-13T02:18:14;14.60;99.90
38380;DHT22;38377;47.418;18.882;2023-10-13T02:20:47;14.60;99.90
38380;DHT22;38377;47.418;18.882;2023-10-13T02:23:21;14.60;99.90
38380;DHT22;38377;47.418;18.882;2023-10-13T02:25:48;14.60;99.90
38380;DHT22;38377;47.418;18.882;2023-10-13T02:28:18;14.60;99.90
38380;DHT22;38377;47.418;18.882;2023-10-13T02:30:47;14.70;99.90
38380;DHT22;38377;47.418;18.882;2023-10-13T02:33:18;14.70;99.90
38380;DHT22;38377;47.418;18.882;2023-10-13T02:35:48;14.70;99.90
38380;DHT22;38377;47.418;18.882;2023-10-13T02:38:23;14.70;99.90
38380;DHT22;38377;47.418;18.882;2023-10-13T02:40:57;14.70;99.90
38380;DHT22;38377;47.418;18.882;2023-10-13T02:43:39;14.70;99.90
38380;DHT22;38377;47.418;18.882;2023-10-13T02:46:06;14.70;99.90
38380;DHT22;38377;47.418;18.882;2023-10-13T02:48:31;14.70;99.90
38380;DHT22;38377;47.418;18.882;2023-10-13T02:51:08;14.70;99.90
38380;DHT22;38377;47.418;18.882;2023-10-13T02:53:47;14.70;99.90
38380;DHT22;38377;47.418;18.882;2023-10-13T02:56:18;14.80;99.90
38380;DHT22;38377;47.418;18.882;2023-10-13T02:58:52;14.80;99.90
38380;DHT22;38377;47.418;18.882;2023-10-13T03:01:35;14.80;99.90
38380;DHT22;38377;47.418;18.882;2023-10-13T03:04:02;14.90;99.90
38380;DHT22;38377;47.418;18.882;2023-10-13T03:06:29;14.90;99.90
38380;DHT22;38377;47.418;18.882;2023-10-13T03:08:59;15.00;99.90
38380;DHT22;38377;47.418;18.882;2023-10-13T03:11:46;15.20;99.90
38380;DHT22;38377;47.418;18.882;2023-10-13T03:14:16;15.50;99.90
38380;DHT22;38377;47.418;18.882;2023-10-13T03:16:54;15.70;99.90
38380;DHT22;38377;47.418;18.882;2023-10-13T03:19:21;15.90;99.90
38380;DHT22;38377;47.418;18.882;2023-10-13T03:21:47;16.10;99.90
38380;DHT22;38377;47.418;18.882;2023-10-13T03:24:30;16.20;99.90
38380;DHT22;38377;47.418;18.882;2023-10-13T03:27:02;16.20;99.90
38380;DHT22;38377;47.418;18.882;2023-10-13T03:29:39;16.20;99.90
38380;DHT22;38377;47.418;18.882;2023-10-13T03:32:13;16.10;99.90
38380;DHT22;38377;47.418;18.882;2023-10-13T03:34:44;16.10;99.90
38380;DHT22;38377;47.418;18.882;2023-10-13T03:37:25;16.10;99.90
38380;DHT22;38377;47.418;18.882;2023-10-13T03:42:45;16.10;99.90
38380;DHT22;38377;47.418;18.882;2023-10-13T03:45:24;16.10;99.90
38380;DHT22;38377;47.418;18.882;2023-10-13T03:47:51;16.10;99.90
38380;DHT22;38377;47.418;18.882;2023-10-13T03:50:17;16.10;99.90
38380;DHT22;38377;47.418;18.882;2023-10-13T03:52:55;16.10;99.90
38380;DHT22;38377;47.418;18.882;2023-10-13T03:55:24;16.00;99.90
38380;DHT22;38377;47.418;18.882;2023-10-13T03:57:52;15.90;99.90
38380;DHT22;38377;47.418;18.882;2023-10-13T04:00:20;15.90;99.90
38380;DHT22;38377;47.418;18.882;2023-10-13T04:02:51;16.00;99.90
38380;DHT22;38377;47.418;18.882;2023-10-13T04:05:35;16.00;99.90
38380;DHT22;38377;47.418;18.882;2023-10-13T04:08:10;16.00;99.90
38380;DHT22;38377;47.418;18.882;2023-10-13T04:10:55;16.10;99.90
38380;DHT22;38377;47.418;18.882;2023-10-13T04:13:22;16.10;99.90
38380;DHT22;38377;47.418;18.882;2023-10-13T04:16:10;16.00;99.90
38380;DHT22;38377;47.418;18.882;2023-10-13T04:18:50;15.90;99.90
38380;DHT22;38377;47.418;18.882;2023-10-13T04:21:36;15.80;99.90
38380;DHT22;38377;47.418;18.882;2023-10-13T04:24:06;15.70;99.90
38380;DHT22;38377;47.418;18.882;2023-10-13T04:26:52;15.70;99.90
38380;DHT22;38377;47.418;18.882;2023-10-13T04:29:37;15.70;99.90
38380;DHT22;38377;47.418;18.882;2023-10-13T04:32:21;15.70;99.90
38380;DHT22;38377;47.418;18.882;2023-10-13T04:35:04;15.70;99.90
38380;DHT22;38377;47.418;18.882;2023-10-13T04:37:39;15.60;99.90
38380;DHT22;38377;47.418;18.882;2023-10-13T04:40:34;15.50;99.90
38380;DHT22;38377;47.418;18.882;2023-10-13T04:43:02;15.40;99.90
38380;DHT22;38377;47.418;18.882;2023-10-13T04:45:51;15.40;99.90
38380;DHT22;38377;47.418;18.882;2023-10-13T04:48:23;15.50;99.90
38380;DHT22;38377;47.418;18.882;2023-10-13T04:50:49;15.40;99.90
38380;DHT22;38377;47.418;18.882;2023-10-13T04:53:38;15.40;99.90
38380;DHT22;38377;47.418;18.882;2023-10-13T04:56:22;15.30;99.90
38380;DHT22;38377;47.418;18.882;2023-10-13T04:59:06;15.30;99.90
38380;DHT22;38377;47.418;18.882;2023-10-13T05:01:43;15.20;99.90
38380;DHT22;38377;47.418;18.882;2023-10-13T05:04:27;15.20;99.90
38380;DHT22;38377;47.418;18.882;2023-10-13T05:07:04;15.20;99.90
38380;DHT22;38377;47.418;18.882;2023-10-13T05:09:49;15.20;99.90
38380;DHT22;38377;47.418;18.882;2023-10-13T05:12:33;15.10;99.90
38380;DHT22;38377;47.418;18.882;2023-10-13T05:15:19;15.20;99.90
38380;DHT22;38377;47.418;18.882;2023-10-13T05:18:03;15.20;99.90
38380;DHT22;38377;47.418;18.882;2023-10-13T05:20:48;15.30;99.90
38380;DHT22;38377;47.418;18.882;2023-10-13T05:23:32;15.20;99.90
38380;DHT22;38377;47.418;18.882;2023-10-13T05:26:16;15.20;99.90
38380;DHT22;38377;47.418;18.882;2023-10-13T05:29:00;15.20;99.90
38380;DHT22;38377;47.418;18.882;2023-10-13T05:31:44;15.20;99.90
38380;DHT22;38377;47.418;18.882;2023-10-13T05:34:28;15.20;99.90
38380;DHT22;38377;47.418;18.882;2023-10-13T05:37:12;15.10;99.90
38380;DHT22;38377;47.418;18.882;2023-10-13T05:39:56;15.10;99.90
38380;DHT22;38377;47.418;18.882;2023-10-13T05:42:40;15.10;99.90
38380;DHT22;38377;47.418;18.882;2023-10-13T05:45:24;15.00;99.90
38380;DHT22;38377;47.418;18.882;2023-10-13T05:48:05;15.10;99.90
38380;DHT22;38377;47.418;18.882;2023-10-13T05:50:49;15.10;99.90
38380;DHT22;38377;47.418;18.882;2023-10-13T05:53:22;15.20;99.90
38380;DHT22;38377;47.418;18.882;2023-10-13T05:56:07;15.20;99.90
38380;DHT22;38377;47.418;18.882;2023-10-13T05:58:51;15.20;99.90
38380;DHT22;38377;47.418;18.882;2023-10-13T06:01:35;15.30;99.90
38380;DHT22;38377;47.418;18.882;2023-10-13T06:04:19;15.30;99.90
38380;DHT22;38377;47.418;18.882;2023-10-13T06:07:03;15.30;99.90
38380;DHT22;38377;47.418;18.882;2023-10-13T06:09:48;15.30;99.90
38380;DHT22;38377;47.418;18.882;2023-10-13T06:12:32;15.30;99.90
38380;DHT22;38377;47.418;18.882;2023-10-13T06:15:16;15.40;99.90
38380;DHT22;38377;47.418;18.882;2023-10-13T06:18:08;15.40;99.90
38380;DHT22;38377;47.418;18.882;2023-10-13T06:20:52;15.40;99.90
38380;DHT22;38377;47.418;18.882;2023-10-13T06:23:36;15.50;99.90
38380;DHT22;38377;47.418;18.882;2023-10-13T06:26:20;15.60;99.90
38380;DHT22;38377;47.418;18.882;2023-10-13T06:29:04;15.60;99.90
38380;DHT22;38377;47.418;18.882;2023-10-13T06:31:33;15.60;99.90
38380;DHT22;38377;47.418;18.882;2023-10-13T06:34:00;15.60;99.90
38380;DHT22;38377;47.418;18.882;2023-10-13T06:36:28;15.70;99.90
38380;DHT22;38377;47.418;18.882;2023-10-13T06:38:54;15.80;99.90
38380;DHT22;38377;47.418;18.882;2023-10-13T06:41:43;15.80;99.90
38380;DHT22;38377;47.418;18.882;2023-10-13T06:44:09;15.90;99.90
38380;DHT22;38377;47.418;18.882;2023-10-13T06:46:40;15.90;99.90
38380;DHT22;38377;47.418;18.882;2023-10-13T06:49:06;15.90;99.90
38380;DHT22;38377;47.418;18.882;2023-10-13T06:51:35;16.00;99.90
38380;DHT22;38377;47.418;18.882;2023-10-13T06:54:04;16.00;99.90
38380;DHT22;38377;47.418;18.882;2023-10-13T06:56:35;16.10;99.90
38380;DHT22;38377;47.418;18.882;2023-10-13T06:59:05;16.20;99.90
38380;DHT22;38377;47.418;18.882;2023-10-13T07:01:32;16.20;99.90
38380;DHT22;38377;47.418;18.882;2023-10-13T07:04:06;16.20;99.90
38380;DHT22;38377;47.418;18.882;2023-10-13T07:06:42;16.20;99.90
38380;DHT22;38377;47.418;18.882;2023-10-13T07:09:17;16.30;99.90
38380;DHT22;38377;47.418;18.882;2023-10-13T07:12:04;16.40;99.90
38380;DHT22;38377;47.418;18.882;2023-10-13T07:14:50;16.50;99.90
38380;DHT22;38377;47.418;18.882;2023-10-13T07:17:24;16.60;99.90
38380;DHT22;38377;47.418;18.882;2023-10-13T07:19:53;16.70;99.90
38380;DHT22;38377;47.418;18.882;2023-10-13T07:22:20;16.70;99.90
38380;DHT22;38377;47.418;18.882;2023-10-13T07:24:50;16.80;99.90
38380;DHT22;38377;47.418;18.882;2023-10-13T07:27:20;16.80;99.90
38380;DHT22;38377;47.418;18.882;2023-10-13T07:29:52;16.80;99.90
38380;DHT22;38377;47.418;18.882;2023-10-13T07:32:36;16.90;99.90
38380;DHT22;38377;47.418;18.882;2023-10-13T07:35:02;17.00;99.90
38380;DHT22;38377;47.418;18.882;2023-10-13T07:37:37;17.10;99.90
38380;DHT22;38377;47.418;18.882;2023-10-13T07:40:09;17.20;99.90
38380;DHT22;38377;47.418;18.882;2023-10-13T07:42:58;17.30;99.90
38380;DHT22;38377;47.418;18.882;2023-10-13T07:45:29;17.40;99.90
38380;DHT22;38377;47.418;18.882;2023-10-13T07:48:10;17.40;99.90
38380;DHT22;38377;47.418;18.882;2023-10-13T07:51:04;17.40;99.90
38380;DHT22;38377;47.418;18.882;2023-10-13T07:53:33;17.50;99.90
38380;DHT22;38377;47.418;18.882;2023-10-13T07:56:04;17.50;99.90
38380;DHT22;38377;47.418;18.882;2023-10-13T07:58:39;17.50;99.90
38380;DHT22;38377;47.418;18.882;2023-10-13T08:01:24;17.50;99.90
38380;DHT22;38377;47.418;18.882;2023-10-13T08:03:50;17.50;99.90
38380;DHT22;38377;47.418;18.882;2023-10-13T08:06:30;17.50;99.90
38380;DHT22;38377;47.418;18.882;2023-10-13T08:08:55;17.50;99.90
38380;DHT22;38377;47.418;18.882;2023-10-13T08:11:33;17.60;99.90
38380;DHT22;38377;47.418;18.882;2023-10-13T08:14:01;17.60;99.90
38380;DHT22;38377;47.418;18.882;2023-10-13T08:16:49;17.70;99.90
38380;DHT22;38377;47.418;18.882;2023-10-13T08:19:28;17.80;99.90
38380;DHT22;38377;47.418;18.882;2023-10-13T08:22:02;17.90;99.90
38380;DHT22;38377;47.418;18.882;2023-10-13T08:24:46;17.90;99.90
38380;DHT22;38377;47.418;18.882;2023-10-13T08:27:14;18.00;99.90
38380;DHT22;38377;47.418;18.882;2023-10-13T08:29:40;18.10;99.90
38380;DHT22;38377;47.418;18.882;2023-10-13T08:32:25;18.20;99.90
38380;DHT22;38377;47.418;18.882;2023-10-13T08:34:59;18.40;99.90
38380;DHT22;38377;47.418;18.882;2023-10-13T08:37:45;18.50;99.90
38380;DHT22;38377;47.418;18.882;2023-10-13T08:40:17;18.60;99.90
38380;DHT22;38377;47.418;18.882;2023-10-13T08:42:43;18.60;99.90
38380;DHT22;38377;47.418;18.882;2023-10-13T08:45:16;18.60;99.90
38380;DHT22;38377;47.418;18.882;2023-10-13T08:47:54;18.70;99.90
38380;DHT22;38377;47.418;18.882;2023-10-13T08:50:46;18.90;99.90
38380;DHT22;38377;47.418;18.882;2023-10-13T08:56:09;19.10;99.90
38380;DHT22;38377;47.418;18.882;2023-10-13T08:58:57;19.10;99.90
38380;DHT22;38377;47.418;18.882;2023-10-13T09:01:31;19.10;99.90
38380;DHT22;38377;47.418;18.882;2023-10-13T09:04:06;19.20;99.90
38380;DHT22;38377;47.418;18.882;2023-10-13T09:06:57;19.30;99.90
38380;DHT22;38377;47.418;18.882;2023-10-13T09:09:45;19.40;99.90
38380;DHT22;38377;47.418;18.882;2023-10-13T09:12:28;19.40;99.90
38380;DHT22;38377;47.418;18.882;2023-10-13T09:14:58;19.40;99.90
38380;DHT22;38377;47.418;18.882;2023-10-13T09:17:29;19.30;99.90
38380;DHT22;38377;47.418;18.882;2023-10-13T09:20:02;19.40;99.90
38380;DHT22;38377;47.418;18.882;2023-10-13T09:22:47;19.40;99.90
38380;DHT22;38377;47.418;18.882;2023-10-13T09:25:40;19.60;99.90
38380;DHT22;38377;47.418;18.882;2023-10-13T09:28:20;19.70;99.90
38380;DHT22;38377;47.418;18.882;2023-10-13T09:30:52;19.90;99.90
38380;DHT22;38377;47.418;18.882;2023-10-13T09:33:28;20.40;99.90
38380;DHT22;38377;47.418;18.882;2023-10-13T09:36:15;20.90;99.90
38380;DHT22;38377;47.418;18.882;2023-10-13T09:38:42;21.10;99.90
38380;DHT22;38377;47.418;18.882;2023-10-13T09:41:27;21.10;99.90
38380;DHT22;38377;47.418;18.882;2023-10-13T09:43:57;20.90;99.90
38380;DHT22;38377;47.418;18.882;2023-10-13T09:46:26;20.70;99.90
38380;DHT22;38377;47.418;18.882;2023-10-13T09:49:05;20.80;99.90
38380;DHT22;38377;47.418;18.882;2023-10-13T09:51:34;20.90;99.90
38380;DHT22;38377;47.418;18.882;2023-10-13T09:54:21;21.00;99.90
38380;DHT22;38377;47.418;18.882;2023-10-13T09:57:00;21.10;99.90
38380;DHT22;38377;47.418;18.882;2023-10-13T09:59:36;21.30;99.90
38380;DHT22;38377;47.418;18.882;2023-10-13T10:02:06;21.60;99.90
38380;DHT22;38377;47.418;18.882;2023-10-13T10:04:54;21.90;99.90
38380;DHT22;38377;47.418;18.882;2023-10-13T10:07:36;21.70;99.90
38380;DHT22;38377;47.418;18.882;2023-10-13T10:10:05;21.90;99.90
38380;DHT22;38377;47.418;18.882;2023-10-13T10:15:48;22.40;99.90
38380;DHT22;38377;47.418;18.882;2023-10-13T10:18:21;22.20;99.90
38380;DHT22;38377;47.418;18.882;2023-10-13T10:20:48;22.20;99.90
38380;DHT22;38377;47.418;18.882;2023-10-13T10:23:29;22.30;99.90
38380;DHT22;38377;47.418;18.882;2023-10-13T10:26:13;22.30;99.90
38380;DHT22;38377;47.418;18.882;2023-10-13T10:28:42;22.50;99.90
38380;DHT22;38377;47.418;18.882;2023-10-13T10:31:09;22.70;99.90
38380;DHT22;38377;47.418;18.882;2023-10-13T10:33:38;22.80;99.90
38380;DHT22;38377;47.418;18.882;2023-10-13T10:36:04;23.10;99.90
38380;DHT22;38377;47.418;18.882;2023-10-13T10:38:30;23.20;99.90
38380;DHT22;38377;47.418;18.882;2023-10-13T10:41:04;23.50;99.90
38380;DHT22;38377;47.418;18.882;2023-10-13T10:46:28;23.70;99.90
38380;DHT22;38377;47.418;18.882;2023-10-13T10:48:57;23.80;99.90
38380;DHT22;38377;47.418;18.882;2023-10-13T10:51:27;24.00;99.70
38380;DHT22;38377;47.418;18.882;2023-10-13T10:54:00;23.90;99.90
38380;DHT22;38377;47.418;18.882;2023-10-13T10:56:38;23.90;99.90
38380;DHT22;38377;47.418;18.882;2023-10-13T10:59:05;23.60;99.40
38380;DHT22;38377;47.418;18.882;2023-10-13T11:01:33;23.70;99.40
38380;DHT22;38377;47.418;18.882;2023-10-13T11:04:08;23.80;99.30
38380;DHT22;38377;47.418;18.882;2023-10-13T11:06:36;23.80;99.60
38380;DHT22;38377;47.418;18.882;2023-10-13T11:09:08;23.80;99.60
38380;DHT22;38377;47.418;18.882;2023-10-13T11:11:56;24.00;98.80
38380;DHT22;38377;47.418;18.882;2023-10-13T11:14:29;23.90;98.90
38380;DHT22;38377;47.418;18.882;2023-10-13T11:16:56;23.90;99.10
38380;DHT22;38377;47.418;18.882;2023-10-13T11:19:36;24.00;99.20
38380;DHT22;38377;47.418;18.882;2023-10-13T11:22:11;23.70;98.70
38380;DHT22;38377;47.418;18.882;2023-10-13T11:25:05;23.80;98.50
38380;DHT22;38377;47.418;18.882;2023-10-13T11:27:40;24.00;98.10
38380;DHT22;38377;47.418;18.882;2023-10-13T11:30:14;24.30;96.70
38380;DHT22;38377;47.418;18.882;2023-10-13T11:32:41;24.50;96.30
38380;DHT22;38377;47.418;18.882;2023-10-13T11:35:11;24.70;92.40
38380;DHT22;38377;47.418;18.882;2023-10-13T11:37:49;25.00;92.70
38380;DHT22;38377;47.418;18.882;2023-10-13T11:40:34;25.30;92.20
38380;DHT22;38377;47.418;18.882;2023-10-13T11:43:09;25.70;90.80
38380;DHT22;38377;47.418;18.882;2023-10-13T11:45:47;25.80;85.40
38380;DHT22;38377;47.418;18.882;2023-10-13T11:48:40;25.90;83.60
38380;DHT22;38377;47.418;18.882;2023-10-13T11:53:37;26.30;83.00
38380;DHT22;38377;47.418;18.882;2023-10-13T11:56:04;26.20;80.30
38380;DHT22;38377;47.418;18.882;2023-10-13T11:58:40;26.30;80.20
38380;DHT22;38377;47.418;18.882;2023-10-13T12:01:06;26.20;77.40
38380;DHT22;38377;47.418;18.882;2023-10-13T12:03:34;26.00;78.90
38380;DHT22;38377;47.418;18.882;2023-10-13T12:06:19;25.60;79.90
38380;DHT22;38377;47.418;18.882;2023-10-13T12:08:48;25.60;81.20
38380;DHT22;38377;47.418;18.882;2023-10-13T12:11:18;25.60;78.70
38380;DHT22;38377;47.418;18.882;2023-10-13T12:13:56;25.60;78.70
38380;DHT22;38377;47.418;18.882;2023-10-13T12:16:22;25.60;80.60
38380;DHT22;38377;47.418;18.882;2023-10-13T12:18:48;25.40;81.00
38380;DHT22;38377;47.418;18.882;2023-10-13T12:21:19;25.50;78.60
38380;DHT22;38377;47.418;18.882;2023-10-13T12:23:47;25.50;79.60
38380;DHT22;38377;47.418;18.882;2023-10-13T12:26:13;25.40;79.60
38380;DHT22;38377;47.418;18.882;2023-10-13T12:28:58;25.40;79.00
38380;DHT22;38377;47.418;18.882;2023-10-13T12:31:32;25.30;80.30
38380;DHT22;38377;47.418;18.882;2023-10-13T12:33:58;25.30;79.70
38380;DHT22;38377;47.418;18.882;2023-10-13T12:36:32;25.30;80.50
38380;DHT22;38377;47.418;18.882;2023-10-13T12:39:07;25.30;79.40
38380;DHT22;38377;47.418;18.882;2023-10-13T12:41:32;25.30;81.30
38380;DHT22;38377;47.418;18.882;2023-10-13T12:44:16;25.30;78.30
38380;DHT22;38377;47.418;18.882;2023-10-13T12:47:00;25.20;79.50
38380;DHT22;38377;47.418;18.882;2023-10-13T12:49:44;25.00;80.30
38380;DHT22;38377;47.418;18.882;2023-10-13T12:52:10;24.80;79.20
38380;DHT22;38377;47.418;18.882;2023-10-13T12:54:46;24.70;81.60
38380;DHT22;38377;47.418;18.882;2023-10-13T12:57:22;24.70;79.40
38380;DHT22;38377;47.418;18.882;2023-10-13T12:59:50;24.60;80.80
38380;DHT22;38377;47.418;18.882;2023-10-13T13:02:20;24.70;83.60
38380;DHT22;38377;47.418;18.882;2023-10-13T13:04:46;24.70;81.80
38380;DHT22;38377;47.418;18.882;2023-10-13T13:07:16;24.70;82.20
38380;DHT22;38377;47.418;18.882;2023-10-13T13:09:43;24.80;81.50
38380;DHT22;38377;47.418;18.882;2023-10-13T13:12:09;24.90;81.10
38380;DHT22;38377;47.418;18.882;2023-10-13T13:14:38;24.80;81.40
38380;DHT22;38377;47.418;18.882;2023-10-13T13:17:06;24.90;80.60
38380;DHT22;38377;47.418;18.882;2023-10-13T13:19:36;24.80;79.00
38380;DHT22;38377;47.418;18.882;2023-10-13T13:22:05;24.80;79.60
38380;DHT22;38377;47.418;18.882;2023-10-13T13:24:40;24.80;80.50
38380;DHT22;38377;47.418;18.882;2023-10-13T13:27:13;24.90;80.80
38380;DHT22;38377;47.418;18.882;2023-10-13T13:29:46;25.00;78.70
38380;DHT22;38377;47.418;18.882;2023-10-13T13:32:12;25.00;77.50
38380;DHT22;38377;47.418;18.882;2023-10-13T13:34:52;25.10;78.70
38380;DHT22;38377;47.418;18.882;2023-10-13T13:37:34;25.10;77.60
38380;DHT22;38377;47.418;18.882;2023-10-13T13:40:00;25.10;79.80
38380;DHT22;38377;47.418;18.882;2023-10-13T13:42:41;25.00;77.40
38380;DHT22;38377;47.418;18.882;2023-10-13T13:45:17;24.80;78.20
38380;DHT22;38377;47.418;18.882;2023-10-13T13:48:09;24.70;79.90
38380;DHT22;38377;47.418;18.882;2023-10-13T13:50:41;24.50;77.70
38380;DHT22;38377;47.418;18.882;2023-10-13T13:53:06;24.40;76.70
38380;DHT22;38377;47.418;18.882;2023-10-13T13:55:35;24.50;77.70
38380;DHT22;38377;47.418;18.882;2023-10-13T13:58:01;24.50;79.20
38380;DHT22;38377;47.418;18.882;2023-10-13T14:00:30;24.40;81.10
38380;DHT22;38377;47.418;18.882;2023-10-13T14:03:13;24.30;83.80
38380;DHT22;38377;47.418;18.882;2023-10-13T14:06:00;24.20;86.30
38380;DHT22;38377;47.418;18.882;2023-10-13T14:08:26;24.20;80.10
38380;DHT22;38377;47.418;18.882;2023-10-13T14:10:53;24.30;80.40
38380;DHT22;38377;47.418;18.882;2023-10-13T14:13:38;24.30;84.20
38380;DHT22;38377;47.418;18.882;2023-10-13T14:16:20;24.20;83.60
38380;DHT22;38377;47.418;18.882;2023-10-13T14:18:51;24.30;81.90
38380;DHT22;38377;47.418;18.882;2023-10-13T14:21:18;24.20;80.00
38380;DHT22;38377;47.418;18.882;2023-10-13T14:23:51;24.30;79.20
38380;DHT22;38377;47.418;18.882;2023-10-13T14:26:20;24.30;82.60
38380;DHT22;38377;47.418;18.882;2023-10-13T14:28:52;24.30;83.40
38380;DHT22;38377;47.418;18.882;2023-10-13T14:31:38;24.20;83.30
38380;DHT22;38377;47.418;18.882;2023-10-13T14:34:04;24.00;83.00
38380;DHT22;38377;47.418;18.882;2023-10-13T14:36:30;23.90;84.00
38380;DHT22;38377;47.418;18.882;2023-10-13T14:39:00;23.90;83.00
38380;DHT22;38377;47.418;18.882;2023-10-13T14:41:26;23.90;83.30
38380;DHT22;38377;47.418;18.882;2023-10-13T14:43:52;23.90;83.90
38380;DHT22;38377;47.418;18.882;2023-10-13T14:46:19;23.80;83.10
38380;DHT22;38377;47.418;18.882;2023-10-13T14:48:52;23.80;84.70
38380;DHT22;38377;47.418;18.882;2023-10-13T14:51:18;23.80;83.60
38380;DHT22;38377;47.418;18.882;2023-10-13T14:53:48;23.70;83.10
38380;DHT22;38377;47.418;18.882;2023-10-13T14:56:16;23.70;85.90
38380;DHT22;38377;47.418;18.882;2023-10-13T14:58:44;23.60;82.70
38380;DHT22;38377;47.418;18.882;2023-10-13T15:01:11;23.60;84.10
38380;DHT22;38377;47.418;18.882;2023-10-13T15:03:39;23.50;83.10
38380;DHT22;38377;47.418;18.882;2023-10-13T15:06:04;23.40;82.60
38380;DHT22;38377;47.418;18.882;2023-10-13T15:08:30;23.40;80.80
38380;DHT22;38377;47.418;18.882;2023-10-13T15:10:56;23.40;81.90
38380;DHT22;38377;47.418;18.882;2023-10-13T15:13:24;23.30;82.20
38380;DHT22;38377;47.418;18.882;2023-10-13T15:15:51;23.20;83.60
38380;DHT22;38377;47.418;18.882;2023-10-13T15:18:16;23.00;83.90
38380;DHT22;38377;47.418;18.882;2023-10-13T15:20:42;22.80;84.30
38380;DHT22;38377;47.418;18.882;2023-10-13T15:23:09;22.70;85.80
38380;DHT22;38377;47.418;18.882;2023-10-13T15:25:40;22.40;87.20
38380;DHT22;38377;47.418;18.882;2023-10-13T15:28:14;22.20;89.50
38380;DHT22;38377;47.418;18.882;2023-10-13T15:30:43;21.90;91.00
38380;DHT22;38377;47.418;18.882;2023-10-13T15:33:11;21.70;92.30
38380;DHT22;38377;47.418;18.882;2023-10-13T15:35:41;21.50;92.60
38380;DHT22;38377;47.418;18.882;2023-10-13T15:38:12;21.30;93.30
38380;DHT22;38377;47.418;18.882;2023-10-13T15:40:45;21.10;93.80
38380;DHT22;38377;47.418;18.882;2023-10-13T15:43:11;20.80;95.20
38380;DHT22;38377;47.418;18.882;2023-10-13T15:45:37;20.60;95.90
38380;DHT22;38377;47.418;18.882;2023-10-13T15:48:08;20.40;96.30
38380;DHT22;38377;47.418;18.882;2023-10-13T15:50:39;20.30;96.90
38380;DHT22;38377;47.418;18.882;2023-10-13T15:53:06;20.10;97.50
38380;DHT22;38377;47.418;18.882;2023-10-13T15:55:36;19.90;98.10
38380;DHT22;38377;47.418;18.882;2023-10-13T15:58:02;19.70;98.80
38380;DHT22;38377;47.418;18.882;2023-10-13T16:00:28;19.60;99.30
38380;DHT22;38377;47.418;18.882;2023-10-13T16:02:56;19.40;99.90
38380;DHT22;38377;47.418;18.882;2023-10-13T16:05:34;19.20;99.90
38380;DHT22;38377;47.418;18.882;2023-10-13T16:08:01;19.00;99.90
38380;DHT22;38377;47.418;18.882;2023-10-13T16:10:27;18.90;99.90
38380;DHT22;38377;47.418;18.882;2023-10-13T16:12:53;18.80;99.90